Search for airport 
image banner adimage banner ad
image banner ad

SSCO - Comandante Marilda Zaiden de Mesquita Airport

Located in Capão Do Leão, Brazil

ICAO - SSCO, IATA -

Data provided by Airmate  

General information

Coordinates: S31°46'27" W52°27'5"
Elevation is 32 feet MSL.
Magnetic variation is -15° East
Rated:
View ratings: [VIEW]


View others Airports in Rio Grande do Sul

Operational data

Open for public use
Current time UTC:
Current local time:
Weather at : SBPK - Pelotas ( 13 km )
METAR: SBPK 032000Z 13007KT CAVOK 24/17 Q1024
TAF: TAF SBPK 031500Z 0318/0418 06007KT CAVOK TX26/0318Z TN10/0408Z RMK PEU
View NOTAMs / SUP AIP / TFR affecting this airport [VIEW]
Communications frequencies: [VIEW]

Runways:

RWY identifierQFULength (ft)Width (ft)SurfaceLDA (ft)
03262459GRASS
21262459GRASS

Airport contact information

Address: Capão Do Leão Brazil

Satellite view of SSCO